Time;durP1;ratioP1;P1;durP2;ratioP2;P2;SDS_P1;SDS_P2;PMS_P1;PMS_P2;Temp;Humidity;BMP_temperature;BMP_pressure;BME280_temperature;BME280_humidity;BME280_pressure;Samples;Min_cycle;Max_cycle;Signal;HPM_P1;HPM_P2
2022/12/27 00:02:12;;;;;;;13.60;1.83;;;;;;;-142.75;100.00;78614.09;5025005;28;20705;-67
2022/12/27 00:04:38;;;;;;;9.60;1.40;;;;;;;-142.75;100.00;78594.41;5042603;28;20029;-68
2022/12/27 00:07:03;;;;;;;7.55;1.33;;;;;;;-142.75;100.00;78590.47;5041755;28;20036;-67
2022/12/27 00:09:28;;;;;;;6.15;1.90;;;;;;;-142.75;100.00;78592.44;5042472;28;20025;-68
2022/12/27 00:11:54;;;;;;;4.50;1.15;;;;;;;-142.75;100.00;78588.50;5042597;28;20111;-67
2022/12/27 00:14:19;;;;;;;8.77;1.80;;;;;;;-142.75;100.00;78582.59;5042330;28;20029;-67
2022/12/27 00:16:44;;;;;;;7.75;1.38;;;;;;;-142.75;100.00;78592.44;5041898;28;20044;-67
2022/12/27 00:19:10;;;;;;;4.33;1.23;;;;;;;-142.75;100.00;78594.41;5024500;28;20036;-67
2022/12/27 00:21:35;;;;;;;6.90;1.55;;;;;;;-142.75;100.00;78578.63;5042303;28;20275;-67
2022/12/27 00:24:01;;;;;;;11.38;1.30;;;;;;;-142.75;100.00;78584.56;5042223;28;20025;-68
2022/12/27 00:26:29;;;;;;;13.52;1.33;;;;;;;-142.75;100.00;78588.50;5042311;28;20091;-67
2022/12/27 00:28:55;;;;;;;4.57;1.60;;;;;;;-142.75;100.00;78588.50;5042171;28;20024;-67
2022/12/27 00:31:22;;;;;;;7.28;1.08;;;;;;;-142.75;100.00;78590.47;5042046;28;20603;-67
2022/12/27 00:33:50;;;;;;;6.13;1.33;;;;;;;-142.75;100.00;78590.47;5042236;28;20036;-68
2022/12/27 00:36:19;;;;;;;6.97;1.20;;;;;;;-142.75;100.00;78590.47;5042121;28;20059;-68
2022/12/27 00:38:45;;;;;;;7.43;1.27;;;;;;;-142.75;100.00;78590.47;5041330;28;20035;-67
2022/12/27 00:41:12;;;;;;;7.35;1.10;;;;;;;-142.75;100.00;78578.63;5023703;28;20034;-68
2022/12/27 00:43:38;;;;;;;8.20;1.67;;;;;;;-142.75;100.00;78582.59;5041721;28;20035;-68
2022/12/27 00:46:04;;;;;;;10.32;1.38;;;;;;;-142.75;100.00;78590.47;5041804;28;20746;-67
2022/12/27 00:48:29;;;;;;;7.00;1.10;;;;;;;-142.75;100.00;78576.66;5041045;28;20028;-67
2022/12/27 00:50:59;;;;;;;9.57;1.27;;;;;;;-142.75;100.00;78576.66;5042185;28;20027;-67
2022/12/27 00:53:26;;;;;;;8.53;1.37;;;;;;;-142.75;100.00;78574.69;5041912;28;20108;-68
2022/12/27 00:55:51;;;;;;;10.90;2.03;;;;;;;-142.75;100.00;78594.41;5041902;28;20036;-68
2022/12/27 00:58:17;;;;;;;11.50;1.67;;;;;;;-142.75;100.00;78600.31;5040939;28;20029;-68
2022/12/27 01:00:42;;;;;;;8.03;1.50;;;;;;;-142.75;100.00;78594.41;5041667;28;20483;-68
2022/12/27 01:03:07;;;;;;;5.17;1.37;;;;;;;-142.75;100.00;78602.28;5023686;28;20275;-67
2022/12/27 01:05:36;;;;;;;7.53;1.13;;;;;;;-142.75;100.00;78602.28;5024009;28;20271;-68
2022/12/27 01:08:02;;;;;;;8.27;1.40;;;;;;;-142.75;100.00;78602.28;5022973;28;20283;-68
2022/12/27 01:10:27;;;;;;;9.27;1.23;;;;;;;-142.75;100.00;78598.34;5041489;28;20025;-68
2022/12/27 01:12:53;;;;;;;7.33;1.53;;;;;;;-142.75;100.00;78608.19;5041634;28;20060;-67
2022/12/27 01:15:18;;;;;;;6.78;1.40;;;;;;;-142.75;100.00;78606.22;5041479;28;20295;-67
2022/12/27 01:17:43;;;;;;;11.75;1.55;;;;;;;-142.75;100.00;78616.06;5040523;28;20574;-68
2022/12/27 01:20:09;;;;;;;8.25;1.42;;;;;;;-142.75;100.00;78618.03;5042381;28;20025;-67
2022/12/27 01:22:34;;;;;;;7.47;1.50;;;;;;;-142.75;100.00;78623.94;5041538;28;20028;-67
2022/12/27 01:24:59;;;;;;;4.22;1.35;;;;;;;-142.75;100.00;78621.97;5041339;28;20059;-67
2022/12/27 01:27:25;;;;;;;7.13;1.50;;;;;;;-142.75;100.00;78631.81;5040394;28;20033;-67
2022/12/27 01:29:50;;;;;;;10.73;1.63;;;;;;;-142.75;100.00;78627.88;5023486;28;20037;-67
2022/12/27 01:32:15;;;;;;;5.23;1.30;;;;;;;-142.75;100.00;78641.66;5041159;28;20274;-67
2022/12/27 01:34:40;;;;;;;4.67;1.37;;;;;;;-142.75;100.00;78637.72;5041012;28;20851;-67
2022/12/27 01:37:06;;;;;;;10.82;1.42;;;;;;;-142.75;100.00;78643.63;5040251;28;20295;-67
2022/12/27 01:39:31;;;;;;;7.72;1.67;;;;;;;-142.75;100.00;78637.72;5040915;28;20163;-68
2022/12/27 01:44:42;;;;;;;9.90;1.30;;;;;;;-142.75;100.00;78647.56;5041063;28;20126;-67
2022/12/27 01:47:26;;;;;;;11.00;1.20;;;;;;;-142.75;100.00;78629.84;5022121;28;20041;-67
2022/12/27 01:50:29;;;;;;;5.33;1.37;;;;;;;-142.75;100.00;78621.97;5023156;28;20090;-67
2022/12/27 01:53:14;;;;;;;11.90;1.50;;;;;;;-142.75;100.00;78635.75;5022507;28;20029;-67
2022/12/27 01:55:57;;;;;;;6.47;1.40;;;;;;;-142.75;100.00;78635.75;5040224;28;20791;-67
2022/12/27 01:58:35;;;;;;;4.53;1.30;;;;;;;-142.75;100.00;78655.44;5022160;28;20827;-67
2022/12/27 02:01:03;;;;;;;8.60;1.30;;;;;;;-142.75;100.00;78657.41;5022462;28;20043;-67
2022/12/27 02:03:37;;;;;;;7.20;1.60;;;;;;;-142.75;100.00;78647.56;5040504;28;20033;-68
2022/12/27 02:06:06;;;;;;;16.90;1.73;;;;;;;-142.75;100.00;78637.72;5040524;28;20067;-67
2022/12/27 02:09:09;;;;;;;5.30;1.40;;;;;;;-142.75;100.00;78629.84;5039880;28;20039;-67
2022/12/27 02:11:52;;;;;;;8.10;2.00;;;;;;;-142.75;100.00;78618.03;5039875;28;20403;-67
2022/12/27 02:14:25;;;;;;;6.73;1.60;;;;;;;-142.75;100.00;78621.97;5040572;28;20039;-68
2022/12/27 02:16:52;;;;;;;7.93;1.73;;;;;;;-142.75;100.00;78627.88;5040013;28;20043;-67
2022/12/27 02:19:49;;;;;;;4.70;1.50;;;;;;;-142.75;100.00;78629.84;5040496;28;20711;-68
2022/12/27 02:25:45;;;;;;;11.13;1.93;;;;;;;-142.75;100.00;78631.81;5040652;28;20114;-68
2022/12/27 02:28:43;;;;;;;11.25;1.88;;;;;;;-142.75;100.00;78627.88;5039855;28;20487;-67
2022/12/27 02:31:19;;;;;;;8.23;1.50;;;;;;;-142.75;100.00;78620.00;5040065;28;20025;-67
2022/12/27 02:33:49;;;;;;;11.48;1.70;;;;;;;-142.75;100.00;78621.97;5040464;28;20493;-67
2022/12/27 02:36:30;;;;;;;8.10;1.57;;;;;;;-142.75;100.00;78620.00;5040174;28;20029;-67
2022/12/27 02:38:58;;;;;;;8.97;1.07;;;;;;;-142.75;100.00;78614.09;5040233;28;20035;-67
2022/12/27 02:53:03;;;;;;;7.17;1.77;;;;;;;-142.75;100.00;78604.25;5040166;28;20044;-67
2022/12/27 02:59:11;;;;;;;11.53;1.87;;;;;;;-142.75;100.00;78584.56;5039448;28;20043;-68
2022/12/27 03:04:33;;;;;;;14.90;1.98;;;;;;;-142.75;100.00;78592.44;5040320;28;20712;-67
2022/12/27 03:07:11;;;;;;;16.07;2.23;;;;;;;-142.75;100.00;78590.47;5043074;28;20465;-67
2022/12/27 03:16:10;;;;;;;10.30;1.77;;;;;;;-142.75;100.00;78580.59;4981469;28;20959;-67
2022/12/27 03:18:47;;;;;;;4.07;1.47;;;;;;;-142.75;100.00;78582.59;5034942;28;20041;-68
2022/12/27 03:27:03;;;;;;;12.87;1.27;;;;;;;-142.75;100.00;78608.19;5004904;28;20033;-68
2022/12/27 03:35:16;;;;;;;6.30;1.10;;;;;;;-142.75;100.00;78606.22;5023034;28;20033;-67
2022/12/27 03:38:04;;;;;;;10.03;1.63;;;;;;;-142.75;100.00;78614.09;5042149;28;20029;-67
2022/12/27 03:40:37;;;;;;;12.40;1.97;;;;;;;-142.75;100.00;78612.13;5025356;28;20021;-67
2022/12/27 03:43:10;;;;;;;8.97;1.60;;;;;;;-142.75;100.00;78604.25;5025276;28;20174;-68
2022/12/27 03:49:03;;;;;;;9.30;1.70;;;;;;;-142.75;100.00;78610.16;5042204;28;20031;-67
2022/12/27 03:51:35;;;;;;;7.27;1.30;;;;;;;-142.75;100.00;78608.19;5042768;28;20028;-67
2022/12/27 03:54:08;;;;;;;7.53;1.47;;;;;;;-142.75;100.00;78602.28;5024777;28;20481;-67
2022/12/27 03:56:34;;;;;;;9.60;1.83;;;;;;;-142.75;100.00;78621.97;5024606;28;20569;-67
2022/12/27 03:59:00;;;;;;;;;;;;;;;-142.75;100.00;78625.91;5042956;28;20029;-67
2022/12/27 04:01:25;;;;;;;13.07;1.87;;;;;;;-142.75;100.00;78633.78;5024753;28;19917;-68
2022/12/27 04:03:51;;;;;;;5.50;1.33;;;;;;;-142.75;100.00;78645.59;5042973;28;20028;-68
2022/12/27 04:06:16;;;;;;;7.55;1.63;;;;;;;-142.75;100.00;78629.84;5024751;28;20020;-67
2022/12/27 04:36:01;;;;;;;8.67;1.60;;;;;;;-142.75;100.00;78663.31;5042320;28;20811;-67
2022/12/27 04:38:26;;;;;;;12.35;2.22;;;;;;;-142.75;100.00;78663.31;5041157;28;20040;-67
2022/12/27 04:55:22;;;;;;;16.23;1.60;;;;;;;-142.75;100.00;78657.41;5041562;28;20120;-67
2022/12/27 04:57:47;;;;;;;7.03;1.30;;;;;;;-142.75;100.00;78661.34;5041542;28;20037;-67
2022/12/27 05:02:59;;;;;;;9.27;1.37;;;;;;;-142.75;100.00;78675.16;5041774;28;20667;-67
2022/12/27 05:05:25;;;;;;;13.93;2.10;;;;;;;-142.75;100.00;78690.91;5041461;28;20316;-67
2022/12/27 05:16:03;;;;;;;11.73;1.57;;;;;;;-142.75;100.00;78696.81;5041560;28;20781;-67
2022/12/27 05:18:29;;;;;;;9.02;1.70;;;;;;;-142.75;100.00;78696.81;5040305;28;20013;-67
2022/12/27 05:20:54;;;;;;;6.35;1.20;;;;;;;-142.75;100.00;78694.84;5023779;28;20021;-67
2022/12/27 05:26:03;;;;;;;8.40;1.47;;;;;;;-142.75;100.00;78692.88;5041493;28;20063;-67
2022/12/27 05:28:29;;;;;;;10.48;1.83;;;;;;;-142.75;100.00;78696.81;5040303;28;20499;-67
2022/12/27 05:31:00;;;;;;;8.80;1.45;;;;;;;-142.75;100.00;78694.84;5041634;28;20461;-67
2022/12/27 05:33:26;;;;;;;6.47;1.37;;;;;;;-142.75;100.00;78694.84;5041219;28;20029;-67
2022/12/27 05:35:51;;;;;;;5.45;1.20;;;;;;;-142.75;100.00;78704.69;5041442;28;20037;-67
2022/12/27 05:38:16;;;;;;;15.75;1.52;;;;;;;-142.75;100.00;78702.72;5040620;28;20462;-67
2022/12/27 05:40:42;;;;;;;6.17;1.33;;;;;;;-142.75;100.00;78698.78;5044526;22;20041;-65
2022/12/27 05:43:07;;;;;;;12.03;1.67;;;;;;;-142.75;100.00;78696.81;5040347;28;20326;-66
2022/12/27 05:45:33;;;;;;;5.90;1.30;;;;;;;-142.75;100.00;78694.84;5040391;28;20263;-67
2022/12/27 05:47:58;;;;;;;12.73;1.63;;;;;;;-142.75;100.00;78694.84;5039566;28;20374;-65
2022/12/27 05:50:24;;;;;;;6.55;0.80;;;;;;;-142.75;100.00;78688.94;5040188;28;20768;-66
2022/12/27 05:52:49;;;;;;;10.00;1.33;;;;;;;-142.75;100.00;78694.84;5040192;28;20029;-66
2022/12/27 05:55:15;;;;;;;9.27;1.52;;;;;;;-142.75;100.00;78720.44;5039934;28;20024;-65
2022/12/27 05:57:40;;;;;;;8.55;1.23;;;;;;;-142.75;100.00;78714.53;5039191;28;20029;-67
2022/12/27 06:00:06;;;;;;;14.35;1.70;;;;;;;-142.75;100.00;78718.47;5039841;28;20391;-65
2022/12/27 06:02:32;;;;;;;;;;;;;;;-142.75;100.00;78712.56;5040503;28;20482;-66
2022/12/27 06:04:57;;;;;;;8.57;1.40;;;;;;;-142.75;100.00;78744.09;5021965;28;19916;-65
2022/12/27 06:07:22;;;;;;;6.93;1.33;;;;;;;-142.75;100.00;78753.94;5039028;28;20029;-66
2022/12/27 06:09:48;;;;;;;8.57;1.20;;;;;;;-142.75;100.00;78755.91;5040036;28;20352;-65
2022/12/27 06:12:13;;;;;;;11.38;1.00;;;;;;;-142.75;100.00;78763.78;5039450;28;20025;-65
2022/12/27 06:14:40;;;;;;;9.52;1.60;;;;;;;-142.75;100.00;78779.53;5039612;28;20036;-67
2022/12/27 06:17:06;;;;;;;8.87;1.20;;;;;;;-142.75;100.00;78789.38;5039073;28;20029;-66
2022/12/27 06:19:31;;;;;;;6.45;1.23;;;;;;;-142.75;100.00;78799.22;5021674;28;20032;-66
2022/12/27 06:21:56;;;;;;;14.63;1.48;;;;;;;-142.75;100.00;78811.03;5039460;28;20415;-63
2022/12/27 06:24:22;;;;;;;10.30;1.63;;;;;;;-142.75;100.00;78807.09;5039701;28;20119;-64
2022/12/27 06:26:47;;;;;;;6.25;1.08;;;;;;;-142.75;100.00;78795.28;5039102;28;20493;-68
2022/12/27 06:29:12;;;;;;;5.85;1.33;;;;;;;-142.75;100.00;78803.16;5039806;28;20914;-66
2022/12/27 06:31:38;;;;;;;7.38;1.35;;;;;;;-142.75;100.00;78793.31;5039758;28;20033;-65
2022/12/27 06:34:04;;;;;;;5.97;1.92;;;;;;;-142.75;100.00;78795.28;5039916;28;20105;-65
2022/12/27 06:36:29;;;;;;;6.15;1.60;;;;;;;-142.75;100.00;78791.34;5021189;28;20021;-65
2022/12/27 06:38:58;;;;;;;10.25;1.98;;;;;;;-142.75;100.00;78787.41;5021361;28;20021;-65
2022/12/27 06:41:25;;;;;;;6.80;1.30;;;;;;;-142.75;100.00;78783.47;5005588;28;1067703;-65
2022/12/27 06:43:53;;;;;;;;;;;;;;;-142.75;100.00;78777.56;5027329;28;20036;-66
2022/12/27 06:46:18;;;;;;;13.93;1.77;;;;;;;-142.75;100.00;78791.34;5026524;28;19952;-67
2022/12/27 06:48:45;;;;;;;7.95;1.63;;;;;;;-142.75;100.00;78809.06;5043218;28;20120;-65
2022/12/27 06:51:12;;;;;;;9.03;1.47;;;;;;;-142.75;100.00;78801.19;5025814;28;20047;-65
2022/12/27 06:53:38;;;;;;;10.47;1.40;;;;;;;-142.75;100.00;78811.03;5043926;28;20029;-66
2022/12/27 06:56:18;;;;;;;11.02;1.10;;;;;;;-142.75;100.00;78803.16;5026157;28;20033;-65
2022/12/27 06:58:44;;;;;;;12.53;1.67;;;;;;;-142.75;100.00;78797.25;5043390;28;20119;-65
2022/12/27 07:01:11;;;;;;;10.00;1.60;;;;;;;-142.75;100.00;78797.25;5025688;28;20021;-68
2022/12/27 07:03:37;;;;;;;6.50;1.20;;;;;;;-142.75;100.00;78799.22;5043915;28;20029;-65
2022/12/27 07:06:04;;;;;;;5.80;1.50;;;;;;;-142.75;100.00;78797.25;5043965;28;20028;-65
2022/12/27 07:08:29;;;;;;;8.43;1.30;;;;;;;-142.75;100.00;78811.03;5043255;28;20083;-66
2022/12/27 07:10:59;;;;;;;6.97;1.38;;;;;;;-142.75;100.00;78811.03;5043883;28;20155;-65
2022/12/27 07:13:25;;;;;;;11.93;2.50;;;;;;;-142.75;100.00;78809.06;5043693;28;20036;-65
2022/12/27 07:15:50;;;;;;;16.38;1.40;;;;;;;-142.75;100.00;78822.88;5025644;28;20075;-65
2022/12/27 07:18:15;;;;;;;15.70;1.47;;;;;;;-142.75;100.00;78803.16;5043139;28;20040;-65
2022/12/27 07:20:41;;;;;;;12.03;1.90;;;;;;;-142.75;100.00;78828.78;5043532;28;20771;-67
2022/12/27 07:23:06;;;;;;;9.57;1.87;;;;;;;-142.75;100.00;78830.75;5043702;28;20283;-64
2022/12/27 07:25:31;;;;;;;10.77;1.37;;;;;;;-142.75;100.00;78818.91;5042693;28;20350;-67
2022/12/27 07:27:56;;;;;;;9.80;1.83;;;;;;;-142.75;100.00;78824.84;5043003;28;20032;-65
2022/12/27 07:30:22;;;;;;;6.15;2.13;;;;;;;-142.75;100.00;78830.75;5023805;28;20770;-63
2022/12/27 07:32:47;;;;;;;5.65;1.52;;;;;;;-142.75;100.00;78832.72;5042485;28;20037;-67
2022/12/27 07:35:13;;;;;;;7.45;1.63;;;;;;;-142.75;100.00;78830.75;5043364;28;20053;-65
2022/12/27 07:37:38;;;;;;;9.07;1.25;;;;;;;-142.75;100.00;78830.75;5024834;28;20142;-67
2022/12/27 07:40:04;;;;;;;9.25;2.30;;;;;;;-142.75;100.00;78824.84;5043032;28;20362;-66
2022/12/27 07:42:29;;;;;;;7.85;1.73;;;;;;;-142.75;100.00;78816.94;5042843;28;20071;-66
2022/12/27 07:44:54;;;;;;;10.43;1.67;;;;;;;-142.75;100.00;78824.84;5025481;28;20133;-65
2022/12/27 07:47:20;;;;;;;18.67;1.60;;;;;;;-142.75;100.00;78830.75;5024367;28;20044;-65
2022/12/27 07:49:45;;;;;;;11.85;2.05;;;;;;;-142.75;100.00;78820.88;5025657;28;20571;-66
2022/12/27 07:52:10;;;;;;;8.60;1.50;;;;;;;-142.75;100.00;78834.69;5041930;28;20410;-66
2022/12/27 07:54:36;;;;;;;5.60;1.40;;;;;;;-142.75;100.00;78824.84;5043156;28;20287;-65
2022/12/27 07:57:01;;;;;;;6.47;1.60;;;;;;;-142.75;100.00;78842.56;5042065;28;20327;-66
2022/12/27 07:59:33;;;;;;;17.07;2.77;;;;;;;-142.75;100.00;78868.16;5041222;28;20773;-66
2022/12/27 08:02:04;;;;;;;11.53;2.20;;;;;;;-142.75;100.00;78854.38;5039769;28;20380;-67
2022/12/27 08:04:35;;;;;;;11.17;2.20;;;;;;;-142.75;100.00;78866.19;5026978;28;20025;-67
2022/12/27 08:07:04;;;;;;;7.87;2.00;;;;;;;-142.75;100.00;78866.19;5024147;28;20021;-65
2022/12/27 08:09:34;;;;;;;16.13;2.30;;;;;;;-142.75;100.00;78893.78;5040510;28;20141;-66
2022/12/27 08:11:59;;;;;;;11.00;2.23;;;;;;;-142.75;100.00;78901.66;5031370;28;20492;-67
2022/12/27 08:14:24;;;;;;;11.18;2.22;;;;;;;-142.75;100.00;78909.53;4995500;28;20029;-67
2022/12/27 08:16:50;;;;;;;8.27;2.30;;;;;;;-142.75;100.00;78889.81;5036522;28;20021;-67
2022/12/27 08:19:15;;;;;;;10.88;2.53;;;;;;;-142.75;100.00;78893.78;5018225;28;20326;-67
2022/12/27 08:21:40;;;;;;;4.18;1.70;;;;;;;-142.75;100.00;78895.75;5037161;28;20033;-64
2022/12/27 08:24:06;;;;;;;11.30;1.80;;;;;;;-142.75;100.00;78866.19;5034786;28;20028;-66
2022/12/27 08:26:31;;;;;;;8.90;1.88;;;;;;;-142.75;100.00;78870.13;5033724;28;20383;-64
2022/12/27 08:28:57;;;;;;;16.73;2.88;;;;;;;-142.75;100.00;78854.38;5020919;28;20293;-67
2022/12/27 08:31:22;;;;;;;8.98;2.50;;;;;;;-142.75;100.00;78803.16;5034156;28;20029;-69
2022/12/27 08:33:47;;;;;;;9.40;2.72;;;;;;;-142.75;100.00;78805.13;5021993;28;20075;-66
2022/12/27 08:36:13;;;;;;;15.25;2.42;;;;;;;-142.75;100.00;78807.09;5033676;28;20124;-65
2022/12/27 08:38:39;;;;;;;17.40;3.28;;;;;;;-142.75;100.00;78767.72;5031994;28;20029;-66
2022/12/27 08:41:04;;;;;;;9.55;2.15;;;;;;;-142.75;100.00;78753.94;5035946;28;20116;-66
2022/12/27 08:43:29;;;;;;;8.98;1.80;;;;;;;-142.75;100.00;78767.72;5036711;28;20033;-65
2022/12/27 08:46:04;;;;;;;13.77;1.92;;;;;;;-142.75;100.00;78755.91;5037873;28;20020;-66
2022/12/27 08:48:32;;;;;;;8.00;1.77;;;;;;;-142.75;100.00;78742.09;5014904;28;20056;-65
2022/12/27 08:51:07;;;;;;;8.60;2.20;;;;;;;-142.75;100.00;78704.69;5033101;28;20025;-67
2022/12/27 08:53:32;;;;;;;8.77;1.77;;;;;;;-142.75;100.00;78706.66;5017104;28;20607;-67
2022/12/27 08:55:57;;;;;;;6.05;1.70;;;;;;;-142.75;100.00;78685.00;5018741;28;20041;-67
2022/12/27 08:58:23;;;;;;;10.82;1.77;;;;;;;-142.75;100.00;78675.16;5040508;28;20039;-63
2022/12/27 09:00:49;;;;;;;6.97;1.67;;;;;;;-142.75;100.00;78637.72;5037778;28;20116;-66
2022/12/27 09:03:19;;;;;;;8.65;1.80;;;;;;;-142.75;100.00;78620.00;5040955;28;20398;-65
2022/12/27 09:05:45;;;;;;;11.03;2.07;;;;;;;-142.75;100.00;78649.53;5041209;28;20410;-67
2022/12/27 09:08:10;;;;;;;6.15;1.60;;;;;;;-142.75;100.00;78641.66;5040521;28;20037;-67
2022/12/27 09:10:36;;;;;;;5.90;1.48;;;;;;;-142.75;100.00;78649.53;5041170;28;20082;-66
2022/12/27 09:13:02;;;;;;;7.32;2.05;;;;;;;-142.75;100.00;78639.69;5040796;28;20615;-66
2022/12/27 09:15:27;;;;;;;8.95;1.95;;;;;;;-142.75;100.00;78645.59;5020041;28;20682;-67
2022/12/27 09:17:52;;;;;;;9.48;2.58;;;;;;;-142.75;100.00;78625.91;5039262;28;20870;-65
2022/12/27 09:20:18;;;;;;;10.07;1.95;;;;;;;-142.75;100.00;78598.34;5022458;28;20024;-65
2022/12/27 09:22:43;;;;;;;7.68;1.65;;;;;;;-142.75;100.00;78541.22;5041067;28;20036;-68
2022/12/27 09:25:09;;;;;;;12.60;2.15;;;;;;;-142.75;100.00;78541.22;5023287;28;20082;-67
2022/12/27 09:27:36;;;;;;;4.73;1.57;;;;;;;-142.75;100.00;78539.25;5040270;28;20035;-67
2022/12/27 09:30:04;;;;;;;11.70;2.47;;;;;;;-142.75;100.00;78535.31;5040681;28;20056;-68
2022/12/27 09:32:31;;;;;;;9.13;2.10;;;;;;;-142.75;100.00;78541.22;5041062;28;20029;-66
2022/12/27 09:34:56;;;;;;;10.60;1.90;;;;;;;-142.75;100.00;78600.31;5022965;28;20029;-66
2022/12/27 09:37:21;;;;;;;11.57;2.78;;;;;;;-142.75;100.00;78547.13;5017057;28;20387;-66
2022/12/27 09:39:47;;;;;;;13.27;2.77;;;;;;;-142.75;100.00;78533.34;5022046;28;20029;-66
2022/12/27 09:43:03;;;;;;;12.98;2.17;;;;;;;-142.75;100.00;78484.09;5040965;28;20275;-67
2022/12/27 09:45:41;;;;;;;10.77;2.60;;;;;;;-142.75;100.00;78470.31;4962592;28;20096;-66
2022/12/27 09:48:14;;;;;;;13.03;2.13;;;;;;;-142.75;100.00;78425.03;5020668;28;20047;-67
2022/12/27 09:51:02;;;;;;;7.25;2.13;;;;;;;-142.75;100.00;78425.03;5040762;28;20510;-66
2022/12/27 09:53:52;;;;;;;11.13;2.10;;;;;;;-142.75;100.00;78513.66;5022986;28;20035;-67
2022/12/27 09:56:24;;;;;;;8.98;2.00;;;;;;;-142.75;100.00;78537.28;5040429;28;20053;-67
2022/12/27 09:58:51;;;;;;;5.30;2.07;;;;;;;-142.75;100.00;78484.09;5040367;28;20021;-67
2022/12/27 10:01:25;;;;;;;9.27;2.47;;;;;;;-142.75;100.00;78446.69;5040543;28;20032;-64
2022/12/27 10:03:51;;;;;;;6.00;2.20;;;;;;;-142.75;100.00;78460.47;5041050;28;20028;-67
2022/12/27 10:06:26;;;;;;;9.75;2.55;;;;;;;-142.75;100.00;78452.59;5040633;28;20052;-66
2022/12/27 10:09:25;;;;;;;13.00;2.75;;;;;;;-142.75;100.00;78452.59;5040449;28;20036;-67
2022/12/27 10:12:09;;;;;;;23.23;13.52;;;;;;;-142.75;100.00;78444.72;5040968;28;20067;-67
2022/12/27 10:14:52;;;;;;;5.68;3.20;;;;;;;-142.75;100.00;78362.00;5040939;28;20037;-67
2022/12/27 10:17:42;;;;;;;13.30;6.10;;;;;;;-142.75;100.00;78401.38;5044098;28;20036;-68
2022/12/27 10:20:17;;;;;;;11.57;4.82;;;;;;;-142.75;100.00;78346.25;5044609;28;20548;-67
2022/12/27 10:22:50;;;;;;;12.00;3.22;;;;;;;-142.75;100.00;78397.44;5044531;28;20078;-65
2022/12/27 10:25:20;;;;;;;10.32;2.63;;;;;;;-142.75;100.00;78393.50;5044462;28;20033;-66
2022/12/27 10:27:46;;;;;;;10.48;2.20;;;;;;;-142.75;100.00;78452.59;5042122;28;20120;-65
2022/12/27 10:30:15;;;;;;;8.90;2.42;;;;;;;-142.75;100.00;78444.72;5043169;28;20482;-67
2022/12/27 10:32:40;;;;;;;7.43;2.60;;;;;;;-142.75;100.00;78425.03;5044166;28;20306;-65
2022/12/27 10:35:06;;;;;;;9.30;2.13;;;;;;;-142.75;100.00;78393.50;5044608;28;20487;-66
2022/12/27 10:37:31;;;;;;;12.07;2.50;;;;;;;-142.75;100.00;78393.50;5043696;28;20021;-66
2022/12/27 10:40:06;;;;;;;7.00;2.30;;;;;;;-142.75;100.00;78407.31;5044124;28;20047;-67
2022/12/27 10:42:37;;;;;;;10.02;2.60;;;;;;;-142.75;100.00;78450.63;5044292;28;20025;-67
2022/12/27 10:45:35;;;;;;;10.38;2.88;;;;;;;-142.75;100.00;78478.19;5044259;28;20215;-66
2022/12/27 10:48:19;;;;;;;9.70;3.10;;;;;;;-142.75;100.00;78501.84;5043518;28;20112;-67
2022/12/27 10:50:55;;;;;;;8.68;2.85;;;;;;;-142.75;100.00;78460.47;5026003;28;20044;-67
2022/12/27 10:53:38;;;;;;;11.35;3.53;;;;;;;-142.75;100.00;78486.06;5044105;28;20082;-64
2022/12/27 10:56:19;;;;;;;10.52;3.00;;;;;;;-142.75;100.00;78523.50;5043972;28;20684;-64
2022/12/27 10:58:51;;;;;;;7.10;2.80;;;;;;;-142.75;100.00;78586.53;5025289;28;20033;-67
2022/12/27 11:01:28;;;;;;;5.43;2.37;;;;;;;-142.75;100.00;78588.50;5041187;28;20758;-66
2022/12/27 11:04:19;;;;;;;6.38;2.72;;;;;;;-142.75;100.00;78614.09;5043945;28;20036;-67
2022/12/27 11:06:47;;;;;;;3.77;1.90;;;;;;;-142.75;100.00;78602.28;5043324;28;20043;-68
2022/12/27 11:09:30;;;;;;;11.85;3.72;;;;;;;-142.75;100.00;78584.56;5043748;28;20025;-64
2022/12/27 11:12:16;;;;;;;11.13;2.67;;;;;;;-142.75;100.00;78509.72;5043616;28;20112;-64
2022/12/27 11:15:12;;;;;;;9.97;3.17;;;;;;;-142.75;100.00;78515.63;5043566;28;20111;-66
2022/12/27 11:17:42;;;;;;;10.63;3.17;;;;;;;-142.75;100.00;78470.31;5042858;28;20063;-66
2022/12/27 11:20:11;;;;;;;8.40;3.43;;;;;;;-142.75;100.00;78499.88;5043628;28;20090;-67
2022/12/27 11:23:08;;;;;;;9.80;3.20;;;;;;;-142.75;100.00;78586.53;5025687;28;20036;-67
2022/12/27 11:25:36;;;;;;;11.27;3.22;;;;;;;-142.75;100.00;78531.38;5026259;28;20041;-66
2022/12/27 11:28:05;;;;;;;14.73;3.70;;;;;;;-142.75;100.00;78499.88;5038118;28;20517;-66
2022/12/27 11:30:37;;;;;;;10.83;3.70;;;;;;;-142.75;100.00;78517.59;5023715;28;20475;-67
2022/12/27 11:33:13;;;;;;;9.03;3.40;;;;;;;-142.75;100.00;78535.31;5043007;28;20031;-66
2022/12/27 11:35:49;;;;;;;12.25;3.25;;;;;;;-142.75;100.00;78543.19;5043227;28;20025;-66
2022/12/27 11:38:25;;;;;;;12.03;3.37;;;;;;;-142.75;100.00;78511.69;5042852;28;20168;-68
2022/12/27 11:41:03;;;;;;;10.70;3.10;;;;;;;-142.75;100.00;78549.09;5060462;22;20037;-68
2022/12/27 11:43:34;;;;;;;9.30;2.80;;;;;;;-142.75;100.00;78551.06;5022997;28;20382;-68
2022/12/27 11:46:04;;;;;;;9.07;2.83;;;;;;;-142.75;100.00;78537.28;5028527;28;20025;-68
2022/12/27 11:48:37;;;;;;;9.00;2.73;;;;;;;-142.75;100.00;78535.31;5007879;28;20035;-67
2022/12/27 11:51:11;;;;;;;6.07;3.13;;;;;;;-142.75;100.00;78555.00;5026999;28;20029;-67
2022/12/27 11:53:58;;;;;;;9.43;2.83;;;;;;;-142.75;100.00;78499.88;5030812;28;20049;-68
2022/12/27 11:56:28;;;;;;;12.47;2.67;;;;;;;-142.75;100.00;78499.88;5022754;28;20107;-67
2022/12/27 11:59:04;;;;;;;7.17;2.77;;;;;;;-142.75;100.00;78478.19;5023684;28;20025;-67
2022/12/27 12:01:38;;;;;;;8.17;2.70;;;;;;;-142.75;100.00;78440.78;5024503;28;20024;-68
2022/12/27 12:04:33;;;;;;;7.57;2.83;;;;;;;-142.75;100.00;78462.44;5042929;28;20033;-69
2022/12/27 12:07:10;;;;;;;35.50;5.50;;;;;;;-142.75;100.00;78462.44;5023995;28;20032;-67
2022/12/27 12:09:44;;;;;;;8.30;3.67;;;;;;;-142.75;100.00;78434.88;5042451;28;20028;-67
2022/12/27 12:12:44;;;;;;;21.93;6.43;;;;;;;-142.75;100.00;78393.50;5042525;28;20063;-66
2022/12/27 12:15:18;;;;;;;14.47;3.17;;;;;;;-142.75;100.00;78385.63;5042451;28;20086;-67
2022/12/27 12:18:01;;;;;;;14.30;3.80;;;;;;;-142.75;100.00;78389.56;5041641;28;20032;-67
2022/12/27 12:20:57;;;;;;;7.90;2.60;;;;;;;-142.75;100.00;78373.81;5042234;28;20110;-67
2022/12/27 12:23:37;;;;;;;11.75;2.38;;;;;;;-142.75;100.00;78283.22;5042355;28;20573;-67
2022/12/27 12:26:08;;;;;;;20.63;3.83;;;;;;;-142.75;100.00;78232.03;5042187;28;20071;-66
2022/12/27 12:28:56;;;;;;;8.95;2.33;;;;;;;-142.75;100.00;78251.72;5041609;28;20028;-67
2022/12/27 12:31:24;;;;;;;7.18;2.00;;;;;;;-142.75;100.00;78228.09;5042278;28;20106;-67
2022/12/27 12:34:36;;;;;;;9.02;2.47;;;;;;;-142.75;100.00;78188.72;5024475;28;20063;-67
2022/12/27 12:37:55;;;;;;;13.68;3.13;;;;;;;-142.75;100.00;78224.16;5016713;28;20075;-67
2022/12/27 12:40:55;;;;;;;12.63;3.65;;;;;;;-142.75;100.00;78281.25;5020252;28;20037;-66
2022/12/27 12:43:46;;;;;;;10.20;2.75;;;;;;;-142.75;100.00;78232.03;5033254;28;20123;-67
2022/12/27 12:46:21;;;;;;;6.50;2.17;;;;;;;-142.75;100.00;78243.84;4989574;28;20529;-67
2022/12/27 12:49:11;;;;;;;11.43;3.20;;;;;;;-142.75;100.00;78235.97;5031904;28;20029;-67
2022/12/27 12:52:16;;;;;;;10.07;2.97;;;;;;;-142.75;100.00;78257.63;5022012;28;20036;-67
2022/12/27 12:55:13;;;;;;;7.35;2.50;;;;;;;-142.75;100.00;78334.44;5032660;28;20039;-67
2022/12/27 12:57:44;;;;;;;8.80;2.45;;;;;;;-142.75;100.00;78381.69;5040948;28;20032;-66
2022/12/27 13:00:15;;;;;;;6.65;2.65;;;;;;;-142.75;100.00;78432.91;5041893;28;20718;-67
2022/12/27 13:03:05;;;;;;;9.90;2.37;;;;;;;-142.75;100.00;78434.88;5041390;28;20044;-68
2022/12/27 13:05:46;;;;;;;12.30;2.90;;;;;;;-142.75;100.00;78462.44;5041605;28;20063;-67
2022/12/27 13:08:29;;;;;;;10.83;3.00;;;;;;;-142.75;100.00;78464.41;5040588;28;20037;-67